createdAt,value
2019-03-16T00:00:14.684Z,6.70
2019-03-16T00:02:43.203Z,6.70
2019-03-16T00:05:11.803Z,6.70
2019-03-16T00:07:40.291Z,6.70
2019-03-16T00:10:08.817Z,6.80
2019-03-16T00:12:37.343Z,6.80
2019-03-16T00:15:07.689Z,6.80
2019-03-16T00:17:36.139Z,6.80
2019-03-16T00:20:07.672Z,6.90
2019-03-16T00:22:36.197Z,6.80
2019-03-16T00:25:06.344Z,6.80
2019-03-16T00:27:34.830Z,6.80
2019-03-16T00:30:04.780Z,6.80
2019-03-16T00:32:33.299Z,6.80
2019-03-16T00:35:01.761Z,6.90
2019-03-16T00:37:30.316Z,6.80
2019-03-16T00:39:58.775Z,6.70
2019-03-16T00:42:27.233Z,6.80
2019-03-16T00:44:55.728Z,6.80
2019-03-16T00:47:24.327Z,6.80
2019-03-16T00:49:52.783Z,6.70
2019-03-16T00:52:21.263Z,6.80
2019-03-16T00:54:49.732Z,6.80
2019-03-16T00:57:18.190Z,6.80
2019-03-16T00:59:46.753Z,6.70
2019-03-16T01:02:26.538Z,6.70
2019-03-16T01:04:45.455Z,6.70
2019-03-16T01:07:14.019Z,6.80
2019-03-16T01:09:43.748Z,6.80
2019-03-16T01:12:12.404Z,6.80
2019-03-16T01:14:40.891Z,6.90
2019-03-16T01:17:09.615Z,6.80
2019-03-16T01:19:38.067Z,6.80
2019-03-16T01:22:06.573Z,6.80
2019-03-16T01:24:35.091Z,6.80
2019-03-16T01:27:03.547Z,6.90
2019-03-16T01:29:32.044Z,6.90
2019-03-16T01:32:00.663Z,6.90
2019-03-16T01:34:29.183Z,6.80
2019-03-16T01:36:57.676Z,6.80
2019-03-16T01:39:26.128Z,6.80
2019-03-16T01:41:54.581Z,6.80
2019-03-16T01:44:23.068Z,6.80
2019-03-16T01:46:51.677Z,6.80
2019-03-16T01:49:20.195Z,6.80
2019-03-16T01:51:48.683Z,6.70
2019-03-16T01:54:17.211Z,6.70
2019-03-16T01:56:45.671Z,6.80
2019-03-16T01:59:14.223Z,6.80
2019-03-16T02:01:42.680Z,6.70
2019-03-16T02:04:11.211Z,6.80
2019-03-16T02:06:39.696Z,6.80
2019-03-16T02:09:08.291Z,6.70
2019-03-16T02:11:36.753Z,6.70
2019-03-16T02:14:05.451Z,6.70
2019-03-16T02:16:33.919Z,6.80
2019-03-16T02:19:02.659Z,6.80
2019-03-16T02:21:31.165Z,6.70
2019-03-16T02:23:59.707Z,6.70
2019-03-16T02:26:28.155Z,6.70
2019-03-16T02:28:56.679Z,6.70
2019-03-16T02:31:25.133Z,6.70
2019-03-16T02:33:53.593Z,6.70
2019-03-16T02:36:22.242Z,6.60
2019-03-16T02:38:50.772Z,6.60
2019-03-16T02:41:19.287Z,6.60
2019-03-16T02:43:47.786Z,6.60
2019-03-16T02:46:16.317Z,6.50
2019-03-16T02:48:44.836Z,6.40
2019-03-16T02:51:13.406Z,6.40
2019-03-16T02:53:42.048Z,6.50
2019-03-16T02:56:10.562Z,6.50
2019-03-16T02:58:39.052Z,6.50
2019-03-16T03:01:07.509Z,6.60
2019-03-16T03:03:35.956Z,6.50
2019-03-16T03:06:04.522Z,6.50
2019-03-16T03:08:32.976Z,6.50
2019-03-16T03:11:01.495Z,6.50
2019-03-16T03:13:29.981Z,6.40
2019-03-16T03:15:58.508Z,6.50
2019-03-16T03:18:26.968Z,6.40
2019-03-16T03:20:55.663Z,6.50
2019-03-16T03:23:24.115Z,6.40
2019-03-16T03:25:52.641Z,6.40
2019-03-16T03:28:21.312Z,6.40
2019-03-16T03:30:49.838Z,6.40
2019-03-16T03:33:18.409Z,6.30
2019-03-16T03:35:46.969Z,6.30
2019-03-16T03:38:15.501Z,6.30
2019-03-16T03:40:44.031Z,6.30
2019-03-16T03:43:12.600Z,6.20
2019-03-16T03:45:41.115Z,6.20
2019-03-16T03:48:09.577Z,6.20
2019-03-16T03:50:38.174Z,6.20
2019-03-16T03:53:06.702Z,6.20
2019-03-16T03:55:35.296Z,6.20
2019-03-16T03:58:03.943Z,6.20
2019-03-16T04:00:32.399Z,6.20
2019-03-16T04:03:01.005Z,6.30
2019-03-16T04:05:29.552Z,6.20
2019-03-16T04:07:58.011Z,6.20
2019-03-16T04:10:26.485Z,6.10
2019-03-16T04:12:54.975Z,6.10
2019-03-16T04:15:23.516Z,6.20
2019-03-16T04:17:52.149Z,6.10
2019-03-16T04:20:20.741Z,6.00
2019-03-16T04:22:49.376Z,6.00
2019-03-16T04:25:17.833Z,6.00
2019-03-16T04:27:46.309Z,6.00
2019-03-16T04:30:15.002Z,6.00
2019-03-16T04:32:43.460Z,6.00
2019-03-16T04:35:12.016Z,5.90
2019-03-16T04:37:40.539Z,6.00
2019-03-16T04:40:10.740Z,6.00
2019-03-16T04:42:39.307Z,5.90
2019-03-16T04:45:09.495Z,5.90
2019-03-16T04:47:37.959Z,5.80
2019-03-16T04:50:09.193Z,5.80
2019-03-16T04:52:37.720Z,5.80
2019-03-16T04:55:07.952Z,5.80
2019-03-16T04:57:36.533Z,5.80
2019-03-16T05:00:10.464Z,5.70
2019-03-16T05:02:38.991Z,5.70
2019-03-16T05:05:07.612Z,5.70
2019-03-16T05:07:36.144Z,5.60
2019-03-16T05:10:09.559Z,5.70
2019-03-16T05:12:38.192Z,5.60
2019-03-16T05:15:10.048Z,5.60
2019-03-16T05:17:38.704Z,5.60
2019-03-16T05:20:10.042Z,5.60
2019-03-16T05:22:38.638Z,5.60
2019-03-16T05:25:12.161Z,5.60
2019-03-16T05:27:40.751Z,5.50
2019-03-16T05:30:12.469Z,5.60
2019-03-16T05:32:41.051Z,5.60
2019-03-16T05:35:09.612Z,5.60
2019-03-16T05:37:38.147Z,5.60
2019-03-16T05:40:12.609Z,5.70
2019-03-16T05:42:41.164Z,5.60
2019-03-16T05:45:10.305Z,5.60
2019-03-16T05:47:38.833Z,5.70
2019-03-16T05:50:10.131Z,5.60
2019-03-16T05:52:38.660Z,5.70
2019-03-16T05:55:07.235Z,5.70
2019-03-16T05:57:35.778Z,5.60
2019-03-16T06:00:10.272Z,5.70
2019-03-16T06:02:40.450Z,5.60
2019-03-16T06:05:11.124Z,5.60
2019-03-16T06:07:39.290Z,5.60
2019-03-16T06:10:09.788Z,5.60
2019-03-16T06:12:38.432Z,5.60
2019-03-16T06:15:09.524Z,5.60
2019-03-16T06:17:38.007Z,5.60
2019-03-16T06:22:43.485Z,5.50
2019-03-16T06:25:14.782Z,5.60
2019-03-16T06:27:43.524Z,5.60
2019-03-16T06:30:14.792Z,5.50
2019-03-16T06:32:43.489Z,5.60
2019-03-16T06:35:24.069Z,5.60
2019-03-16T06:37:42.428Z,5.50
2019-03-16T06:40:14.032Z,5.60
2019-03-16T06:42:44.431Z,5.60
2019-03-16T06:45:13.141Z,5.60
2019-03-16T06:47:41.687Z,5.70
2019-03-16T06:50:14.654Z,5.70
2019-03-16T06:52:43.137Z,5.80
2019-03-16T06:55:11.662Z,5.70
2019-03-16T06:57:40.112Z,5.80
2019-03-16T07:00:13.760Z,5.80
2019-03-16T07:02:42.363Z,5.90
2019-03-16T07:05:12.837Z,5.90
2019-03-16T07:07:41.437Z,6.00
2019-03-16T07:10:13.831Z,6.00
2019-03-16T07:12:42.461Z,6.10
2019-03-16T07:15:12.415Z,6.00
2019-03-16T07:17:40.876Z,6.10
2019-03-16T07:20:11.792Z,6.10
2019-03-16T07:22:40.279Z,6.10
2019-03-16T07:25:09.492Z,6.10
2019-03-16T07:27:37.951Z,6.10
2019-03-16T07:30:11.890Z,6.10
2019-03-16T07:32:40.346Z,6.10
2019-03-16T07:35:09.123Z,6.00
2019-03-16T07:37:37.615Z,6.00
2019-03-16T07:40:11.350Z,6.00
2019-03-16T07:42:39.886Z,6.00
2019-03-16T07:45:10.723Z,6.00
2019-03-16T07:47:39.267Z,6.00
2019-03-16T07:50:10.817Z,5.90
2019-03-16T07:52:39.364Z,6.00
2019-03-16T07:55:08.756Z,6.00
2019-03-16T07:57:40.385Z,6.10
2019-03-16T08:00:12.328Z,6.10
2019-03-16T08:02:41.028Z,6.10
2019-03-16T08:05:18.133Z,6.10
2019-03-16T08:07:40.276Z,6.20
2019-03-16T08:10:12.069Z,6.20
2019-03-16T08:12:40.691Z,6.30
2019-03-16T08:15:10.329Z,6.50
2019-03-16T08:17:39.014Z,6.60
2019-03-16T08:20:08.953Z,6.80
2019-03-16T08:22:37.438Z,6.70
2019-03-16T08:25:07.352Z,6.60
2019-03-16T08:27:35.873Z,6.40
2019-03-16T08:30:06.406Z,6.40
2019-03-16T08:32:35.091Z,6.30
2019-03-16T08:35:03.913Z,6.30
2019-03-16T08:37:32.455Z,6.40
2019-03-16T08:40:00.921Z,6.60
2019-03-16T08:42:29.516Z,6.80
2019-03-16T08:44:58.207Z,6.70
2019-03-16T08:47:26.671Z,6.80
2019-03-16T08:49:55.459Z,6.80
2019-03-16T08:52:23.944Z,6.90
2019-03-16T08:54:52.468Z,6.90
2019-03-16T08:57:20.956Z,7.20
2019-03-16T08:59:49.607Z,7.30
2019-03-16T09:02:18.067Z,7.40
2019-03-16T09:04:49.559Z,7.40
2019-03-16T09:07:26.570Z,7.30
2019-03-16T09:09:55.120Z,7.50
2019-03-16T09:12:27.932Z,7.30
2019-03-16T09:14:58.165Z,7.30
2019-03-16T09:17:26.631Z,7.10
2019-03-16T09:19:59.389Z,7.30
2019-03-16T09:22:29.702Z,7.20
2019-03-16T09:24:58.314Z,7.50
2019-03-16T09:27:39.258Z,7.30
2019-03-16T09:30:13.669Z,7.50
2019-03-16T09:32:42.290Z,7.60
2019-03-16T09:35:14.951Z,7.80
2019-03-16T09:37:43.614Z,7.60
2019-03-16T09:40:13.100Z,7.40
2019-03-16T09:42:41.686Z,7.30
2019-03-16T09:45:18.940Z,7.30
2019-03-16T09:47:47.588Z,7.30
2019-03-16T09:50:18.499Z,7.30
2019-03-16T09:52:51.155Z,7.50
2019-03-16T09:55:19.731Z,7.60
2019-03-16T09:57:52.567Z,7.60
2019-03-16T10:00:21.135Z,7.50
2019-03-16T10:02:49.620Z,7.60
2019-03-16T10:05:20.140Z,7.60
2019-03-16T10:07:51.819Z,7.80
2019-03-16T10:10:20.360Z,7.50
2019-03-16T10:12:50.484Z,7.80
2019-03-16T10:15:18.951Z,8.00
2019-03-16T10:17:49.356Z,8.10
2019-03-16T10:20:20.687Z,8.20
2019-03-16T10:22:58.204Z,8.40
2019-03-16T10:25:34.704Z,8.50
2019-03-16T10:28:08.162Z,8.90
2019-03-16T10:30:36.737Z,8.80
2019-03-16T10:33:11.194Z,8.40
2019-03-16T10:35:41.055Z,8.60
2019-03-16T10:38:12.760Z,8.70
2019-03-16T10:40:42.876Z,8.70
2019-03-16T10:43:11.562Z,8.50
2019-03-16T10:45:59.510Z,8.20
2019-03-16T10:48:29.648Z,8.00
2019-03-16T10:50:58.656Z,8.20
2019-03-16T10:53:28.731Z,8.40
2019-03-16T10:56:00.291Z,8.30
2019-03-16T10:58:32.074Z,8.10
2019-03-16T11:01:00.654Z,8.10
2019-03-16T11:03:29.262Z,8.30
2019-03-16T11:05:57.791Z,8.30
2019-03-16T11:08:26.359Z,8.30
2019-03-16T11:10:56.262Z,8.60
2019-03-16T11:13:24.765Z,8.50
2019-03-16T11:15:54.507Z,8.50
2019-03-16T11:18:25.301Z,8.60
2019-03-16T11:20:55.736Z,8.70
2019-03-16T11:23:24.340Z,8.80
2019-03-16T11:25:52.855Z,8.60
2019-03-16T11:28:24.097Z,8.90
2019-03-16T11:30:52.608Z,9.20
2019-03-16T11:33:26.864Z,9.20
2019-03-16T11:35:55.328Z,9.20
2019-03-16T11:38:23.825Z,9.40
2019-03-16T11:40:52.400Z,9.00
2019-03-16T11:43:20.969Z,9.30
2019-03-16T11:45:49.540Z,9.80
2019-03-16T11:48:18.076Z,10.20
2019-03-16T11:50:51.026Z,10.20
2019-03-16T11:53:19.607Z,9.80
2019-03-16T11:55:48.139Z,9.60
2019-03-16T11:58:19.498Z,9.00
2019-03-16T12:00:48.072Z,9.10
2019-03-16T12:03:16.671Z,9.40
2019-03-16T12:05:45.271Z,9.00
2019-03-16T12:08:18.144Z,9.10
2019-03-16T12:10:46.618Z,9.40
2019-03-16T12:13:20.573Z,9.60
2019-03-16T12:15:49.850Z,10.20
2019-03-16T12:18:18.479Z,10.70
2019-03-16T12:20:47.120Z,11.20
2019-03-16T12:23:17.433Z,11.60
2019-03-16T12:25:46.016Z,11.00
2019-03-16T12:28:14.764Z,11.40
2019-03-16T12:30:48.272Z,11.00
2019-03-16T12:33:16.758Z,11.30
2019-03-16T12:35:45.323Z,11.20
2019-03-16T12:38:13.904Z,11.60
2019-03-16T12:40:42.808Z,10.80
2019-03-16T12:43:11.712Z,10.60
2019-03-16T12:45:40.509Z,10.50
2019-03-16T12:48:09.056Z,10.50
2019-03-16T12:50:37.697Z,10.40
2019-03-16T12:53:06.343Z,10.40
2019-03-16T12:55:34.930Z,10.10
2019-03-16T12:58:03.543Z,10.10
2019-03-16T13:00:32.131Z,10.40
2019-03-16T13:03:00.605Z,10.50
2019-03-16T13:05:29.213Z,10.90
2019-03-16T13:07:57.832Z,11.10
2019-03-16T13:10:26.395Z,10.80
2019-03-16T13:12:54.940Z,10.30
2019-03-16T13:15:23.539Z,10.30
2019-03-16T13:17:52.013Z,10.10
2019-03-16T13:20:20.470Z,9.90
2019-03-16T13:22:49.171Z,9.80
2019-03-16T13:25:17.776Z,9.80
2019-03-16T13:27:46.451Z,9.80
2019-03-16T13:30:18.779Z,9.50
2019-03-16T13:32:47.315Z,9.60
2019-03-16T13:35:15.891Z,9.80
2019-03-16T13:37:44.544Z,9.90
2019-03-16T13:40:14.655Z,10.00
2019-03-16T13:42:43.103Z,9.90
2019-03-16T13:45:12.140Z,10.10
2019-03-16T13:47:40.674Z,9.80
2019-03-16T13:50:14.027Z,9.70
2019-03-16T13:52:42.893Z,9.90
2019-03-16T13:55:11.596Z,10.10
2019-03-16T13:57:40.046Z,9.80
2019-03-16T14:00:12.514Z,9.90
2019-03-16T14:02:41.263Z,9.90
2019-03-16T14:05:09.967Z,9.90
2019-03-16T14:07:38.903Z,9.90
2019-03-16T14:10:29.739Z,9.70
2019-03-16T14:12:58.344Z,9.60
2019-03-16T14:15:29.032Z,9.40
2019-03-16T14:17:58.250Z,9.40
2019-03-16T14:20:27.088Z,9.50
2019-03-16T14:22:55.832Z,9.50
2019-03-16T14:25:24.363Z,9.50
2019-03-16T14:27:53.066Z,9.60
2019-03-16T14:30:39.135Z,9.60
2019-03-16T14:32:51.921Z,9.80
2019-03-16T14:35:20.596Z,9.70
2019-03-16T14:37:49.149Z,9.80
2019-03-16T14:40:17.875Z,9.80
2019-03-16T14:42:46.485Z,9.60
2019-03-16T14:45:16.241Z,9.70
2019-03-16T14:47:45.155Z,9.50
2019-03-16T14:50:18.302Z,9.60
2019-03-16T14:52:46.770Z,9.50
2019-03-16T14:55:15.771Z,9.40
2019-03-16T14:57:44.274Z,9.40
2019-03-16T15:00:17.371Z,9.40
2019-03-16T15:02:47.443Z,9.40
2019-03-16T15:05:16.063Z,9.50
2019-03-16T15:07:44.540Z,9.40
2019-03-16T15:10:14.575Z,9.30
2019-03-16T15:13:00.271Z,9.30
2019-03-16T15:15:35.027Z,9.20
2019-03-16T15:18:03.549Z,9.30
2019-03-16T15:20:32.085Z,9.20
2019-03-16T15:23:00.695Z,9.30
2019-03-16T15:25:29.272Z,9.30
2019-03-16T15:27:57.837Z,9.30
2019-03-16T15:30:26.381Z,9.30
2019-03-16T15:32:54.956Z,9.40
2019-03-16T15:35:23.623Z,9.30
2019-03-16T15:37:52.084Z,9.50
2019-03-16T15:40:20.583Z,9.30
2019-03-16T15:42:50.431Z,9.20
2019-03-16T15:45:30.556Z,9.10
2019-03-16T15:47:59.123Z,9.20
2019-03-16T15:50:28.172Z,9.00
2019-03-16T15:52:56.760Z,8.90
2019-03-16T15:55:25.419Z,9.00
2019-03-16T15:58:06.993Z,9.10
2019-03-16T16:00:24.347Z,9.10
2019-03-16T16:02:52.996Z,9.10
2019-03-16T16:05:21.537Z,9.10
2019-03-16T16:07:50.051Z,9.10
2019-03-16T16:10:19.602Z,9.00
2019-03-16T16:12:48.231Z,8.90
2019-03-16T16:15:16.946Z,8.80
2019-03-16T16:17:45.439Z,8.70
2019-03-16T16:20:16.263Z,8.70
2019-03-16T16:22:45.095Z,8.70
2019-03-16T16:25:14.320Z,8.60
2019-03-16T16:27:42.900Z,8.60
2019-03-16T16:30:16.324Z,8.60
2019-03-16T16:32:46.628Z,8.60
2019-03-16T16:35:16.007Z,8.60
2019-03-16T16:37:44.659Z,8.60
2019-03-16T16:40:16.256Z,8.60
2019-03-16T16:42:46.327Z,8.50
2019-03-16T16:45:16.193Z,8.50
2019-03-16T16:47:43.957Z,8.50
2019-03-16T16:50:14.753Z,8.30
2019-03-16T16:52:43.664Z,8.20
2019-03-16T16:55:12.376Z,8.00
2019-03-16T16:57:40.905Z,7.90
2019-03-16T17:00:12.435Z,7.70
2019-03-16T17:02:40.971Z,7.60
2019-03-16T17:05:09.588Z,7.50
2019-03-16T17:07:38.159Z,7.50
2019-03-16T17:10:12.009Z,7.40
2019-03-16T17:12:40.489Z,7.30
2019-03-16T17:15:12.061Z,7.30
2019-03-16T17:17:40.624Z,7.20
2019-03-16T17:20:13.544Z,7.10
2019-03-16T17:22:42.167Z,7.10
2019-03-16T17:25:12.903Z,7.10
2019-03-16T17:27:41.465Z,7.10
2019-03-16T17:30:21.441Z,7.20
2019-03-16T17:32:51.618Z,7.10
2019-03-16T17:35:20.121Z,7.00
2019-03-16T17:37:48.704Z,6.90
2019-03-16T17:40:17.426Z,7.00
2019-03-16T17:42:45.900Z,6.90
2019-03-16T17:45:19.115Z,6.90
2019-03-16T17:47:47.646Z,6.80
2019-03-16T17:50:17.039Z,6.80
2019-03-16T17:52:45.776Z,6.80
2019-03-16T17:55:18.751Z,6.70
2019-03-16T17:57:47.242Z,6.80
2019-03-16T18:00:19.592Z,6.70
2019-03-16T18:02:52.523Z,6.70
2019-03-16T18:05:18.872Z,6.60
2019-03-16T18:07:47.536Z,6.60
2019-03-16T18:10:16.197Z,6.60
2019-03-16T18:12:44.715Z,6.50
2019-03-16T18:15:18.368Z,6.40
2019-03-16T18:17:46.898Z,6.40
2019-03-16T18:20:17.897Z,6.40
2019-03-16T18:22:47.642Z,6.20
2019-03-16T18:25:16.820Z,6.20
2019-03-16T18:27:45.411Z,6.20
2019-03-16T18:30:24.258Z,6.20
2019-03-16T18:32:52.783Z,6.10
2019-03-16T18:35:21.324Z,6.00
2019-03-16T18:37:49.899Z,6.00
2019-03-16T18:40:18.450Z,6.00
2019-03-16T18:43:05.522Z,5.80
2019-03-16T18:45:34.388Z,5.70
2019-03-16T18:48:02.995Z,5.70
2019-03-16T18:50:31.572Z,5.80
2019-03-16T18:53:00.192Z,5.80
2019-03-16T18:55:29.870Z,5.80
2019-03-16T18:57:57.681Z,5.70
2019-03-16T19:00:26.364Z,5.70
2019-03-16T19:02:54.852Z,5.70
2019-03-16T19:05:23.355Z,5.70
2019-03-16T19:07:51.820Z,5.70
2019-03-16T19:10:20.452Z,5.70
2019-03-16T19:12:49.181Z,5.50
2019-03-16T19:15:18.771Z,5.60
2019-03-16T19:17:57.936Z,5.70
2019-03-16T19:20:18.072Z,5.70
2019-03-16T19:22:46.757Z,5.70
2019-03-16T19:25:16.800Z,5.70
2019-03-16T19:27:45.378Z,5.60
2019-03-16T19:30:15.270Z,5.60
2019-03-16T19:32:43.965Z,5.60
2019-03-16T19:35:12.966Z,5.50
2019-03-16T19:37:41.675Z,5.70
2019-03-16T19:40:15.535Z,5.60
2019-03-16T19:42:46.463Z,5.60
2019-03-16T19:45:14.342Z,5.70
2019-03-16T19:47:42.997Z,5.60
2019-03-16T19:50:16.371Z,5.60
2019-03-16T19:53:05.754Z,5.60
2019-03-16T19:55:34.980Z,5.70
2019-03-16T19:58:03.591Z,5.60
2019-03-16T20:00:32.200Z,5.60
2019-03-16T20:03:00.709Z,5.60
2019-03-16T20:05:29.246Z,5.50
2019-03-16T20:07:57.769Z,5.60
2019-03-16T20:10:26.380Z,5.60
2019-03-16T20:12:54.872Z,5.60
2019-03-16T20:15:24.386Z,5.60
2019-03-16T20:17:53.065Z,5.60
2019-03-16T20:20:21.601Z,5.70
2019-03-16T20:22:50.140Z,5.70
2019-03-16T20:25:18.799Z,5.70
2019-03-16T20:27:47.263Z,5.70
2019-03-16T20:30:25.643Z,5.70
2019-03-16T20:32:50.353Z,5.70
2019-03-16T20:35:17.804Z,5.70
2019-03-16T20:37:46.270Z,5.60
2019-03-16T20:40:16.107Z,5.60
2019-03-16T20:42:44.587Z,5.60
2019-03-16T20:45:13.802Z,5.60
2019-03-16T20:47:42.437Z,5.60
2019-03-16T20:50:18.618Z,5.70
2019-03-16T20:52:47.212Z,5.70
2019-03-16T20:55:15.796Z,5.70
2019-03-16T20:57:44.702Z,5.70
2019-03-16T21:00:17.215Z,5.80
2019-03-16T21:02:45.676Z,5.80
2019-03-16T21:05:14.351Z,5.90
2019-03-16T21:07:42.920Z,5.90
2019-03-16T21:10:12.536Z,5.90
2019-03-16T21:12:41.622Z,6.00
2019-03-16T21:15:20.583Z,6.00
2019-03-16T21:17:49.132Z,6.10
2019-03-16T21:20:18.896Z,6.10
2019-03-16T21:22:47.215Z,6.10
2019-03-16T21:25:16.655Z,6.10
2019-03-16T21:27:47.733Z,6.10
2019-03-16T21:30:20.787Z,6.10
2019-03-16T21:32:49.383Z,6.10
2019-03-16T21:35:18.088Z,6.10
2019-03-16T21:37:46.806Z,6.10
2019-03-16T21:40:15.836Z,6.10
2019-03-16T21:42:44.435Z,6.10
2019-03-16T21:45:13.857Z,6.20
2019-03-16T21:47:42.619Z,6.20
2019-03-16T21:50:15.325Z,6.20
2019-03-16T21:52:44.782Z,6.20
2019-03-16T21:55:14.505Z,6.20
2019-03-16T21:57:43.103Z,6.30
2019-03-16T22:00:14.017Z,6.20
2019-03-16T22:02:42.652Z,6.30
2019-03-16T22:05:11.555Z,6.30
2019-03-16T22:07:40.346Z,6.30
2019-03-16T22:10:13.793Z,6.40
2019-03-16T22:12:42.403Z,6.50
2019-03-16T22:15:14.035Z,6.50
2019-03-16T22:17:42.508Z,6.50
2019-03-16T22:20:19.383Z,6.60
2019-03-16T22:22:47.987Z,6.60
2019-03-16T22:25:16.504Z,6.60
2019-03-16T22:27:45.089Z,6.60
2019-03-16T22:30:17.933Z,6.70
2019-03-16T22:32:46.537Z,6.70
2019-03-16T22:35:15.223Z,6.70
2019-03-16T22:37:43.809Z,6.80
2019-03-16T22:40:13.509Z,6.80
2019-03-16T22:42:41.327Z,6.80
2019-03-16T22:45:11.435Z,6.80
2019-03-16T22:47:39.891Z,6.80
2019-03-16T22:50:11.499Z,6.80
2019-03-16T22:52:40.041Z,6.80
2019-03-16T22:55:08.644Z,6.80
2019-03-16T22:57:37.139Z,6.80
2019-03-16T23:00:21.375Z,6.80
2019-03-16T23:02:49.989Z,6.80
2019-03-16T23:05:18.587Z,6.80
2019-03-16T23:07:47.095Z,6.80
2019-03-16T23:10:15.652Z,6.80
2019-03-16T23:12:44.926Z,6.80
2019-03-16T23:15:13.387Z,6.90
2019-03-16T23:17:41.887Z,6.90
2019-03-16T23:20:10.769Z,6.80
2019-03-16T23:22:39.238Z,6.80
2019-03-16T23:25:09.146Z,6.90
2019-03-16T23:27:37.749Z,6.90
2019-03-16T23:30:11.395Z,6.90
2019-03-16T23:32:39.959Z,6.90
2019-03-16T23:35:09.136Z,6.90
2019-03-16T23:37:37.599Z,6.90
2019-03-16T23:40:12.995Z,6.90
2019-03-16T23:42:41.451Z,6.90
2019-03-16T23:45:12.305Z,6.90
2019-03-16T23:47:40.796Z,6.90
2019-03-16T23:50:11.565Z,6.80
2019-03-16T23:52:40.109Z,6.90
2019-03-16T23:55:09.712Z,6.90
2019-03-16T23:57:38.177Z,6.90
